DAL3250 KLAX-PHNL
Flight info
| Callsign | DAL3250 |
|---|---|
| Flight time | 1h 32m |
| Altitude | 34000 |
| Route | SUMMR2 DINTY DUETS R576 DUSAC/N0481F360 R576 DENNS MAGGI3 |
| Aircraft | B77W/H-SDE1E2E3FGHIJ2J3J4J5M1RWXY/LB1D1 |
Departure
| Time | 2026-05-05 22:30 |
|---|---|
| Airport | Los Angeles International Airport (KLAX) |
Arrival
| Time | 2026-05-06 00:02 |
|---|---|
| Airport | Daniel K. Inouye International Airport (PHNL) |
| Time | Latitude | Longitude | Altitude | Speed | Heading |
|---|---|---|---|---|---|
| 2026-05-05 22:10 | 33.94469 | -118.40972 | 127 ft | 0 kts | 264° |
| 2026-05-05 22:13 | 33.94543 | -118.41446 | 126 ft | 0 kts | 264° |
| 2026-05-05 22:19 | 33.94544 | -118.41429 | 125 ft | 4 kts | 264° |
| 2026-05-05 22:19 | 33.94547 | -118.41400 | 126 ft | 2 kts | 264° |
| 2026-05-05 22:20 | 33.94545 | -118.41374 | 125 ft | 4 kts | 314° |
| 2026-05-05 22:20 | 33.94522 | -118.41360 | 125 ft | 4 kts | 351° |
| 2026-05-05 22:20 | 33.94514 | -118.41358 | 125 ft | 0 kts | 353° |
| 2026-05-05 22:22 | 33.94515 | -118.41358 | 125 ft | 1 kts | 353° |
| 2026-05-05 22:22 | 33.94568 | -118.41366 | 126 ft | 14 kts | 353° |
| 2026-05-05 22:22 | 33.94669 | -118.41380 | 127 ft | 15 kts | 353° |
| 2026-05-05 22:23 | 33.94767 | -118.41377 | 126 ft | 14 kts | 31° |
| 2026-05-05 22:23 | 33.94798 | -118.41250 | 127 ft | 25 kts | 83° |
| 2026-05-05 22:23 | 33.94821 | -118.41024 | 130 ft | 31 kts | 83° |
| 2026-05-05 22:23 | 33.94853 | -118.40710 | 130 ft | 40 kts | 83° |
| 2026-05-05 22:24 | 33.94873 | -118.40517 | 127 ft | 0 kts | 83° |
| 2026-05-05 22:24 | 33.94876 | -118.40483 | 126 ft | 13 kts | 83° |
| 2026-05-05 22:24 | 33.94896 | -118.40298 | 128 ft | 21 kts | 82° |
| 2026-05-05 22:24 | 33.94902 | -118.40236 | 126 ft | 5 kts | 83° |
| 2026-05-05 22:25 | 33.94907 | -118.40192 | 128 ft | 5 kts | 83° |
| 2026-05-05 22:25 | 33.94912 | -118.40147 | 128 ft | 5 kts | 83° |
| 2026-05-05 22:25 | 33.94916 | -118.40103 | 126 ft | 5 kts | 83° |
| 2026-05-05 22:25 | 33.94921 | -118.40059 | 128 ft | 5 kts | 83° |
| 2026-05-05 22:26 | 33.94926 | -118.40014 | 130 ft | 5 kts | 83° |
| 2026-05-05 22:26 | 33.94931 | -118.39970 | 130 ft | 5 kts | 77° |
| 2026-05-05 22:26 | 33.94952 | -118.39934 | 127 ft | 5 kts | 41° |
| 2026-05-05 22:26 | 33.95017 | -118.39916 | 128 ft | 10 kts | 341° |
| 2026-05-05 22:27 | 33.95038 | -118.39965 | 125 ft | 10 kts | 276° |
| 2026-05-05 22:27 | 33.95034 | -118.40045 | 127 ft | 0 kts | 261° |
| 2026-05-05 22:27 | 33.95033 | -118.40047 | 127 ft | 0 kts | 262° |
| 2026-05-05 22:29 | 33.95031 | -118.40073 | 130 ft | 14 kts | 262° |
| 2026-05-05 22:29 | 33.94983 | -118.40524 | 129 ft | 103 kts | 263° |
| 2026-05-05 22:29 | 33.94851 | -118.41786 | 142 ft | 197 kts | 263° |
| 2026-05-05 22:30 | 33.94674 | -118.43616 | 734 ft | 232 kts | 262° |
| 2026-05-05 22:30 | 33.94497 | -118.45596 | 2281 ft | 237 kts | 263° |
| 2026-05-05 22:30 | 33.94302 | -118.47607 | 2832 ft | 249 kts | 266° |
| 2026-05-05 22:30 | 33.94223 | -118.49708 | 3645 ft | 255 kts | 268° |
| 2026-05-05 22:31 | 33.94178 | -118.51855 | 4453 ft | 260 kts | 266° |
| 2026-05-05 22:31 | 33.94016 | -118.54028 | 5316 ft | 263 kts | 264° |
| 2026-05-05 22:31 | 33.93825 | -118.56251 | 6084 ft | 269 kts | 265° |
| 2026-05-05 22:31 | 33.93639 | -118.58481 | 6857 ft | 273 kts | 266° |
| 2026-05-05 22:32 | 33.93436 | -118.60775 | 7637 ft | 278 kts | 265° |
| 2026-05-05 22:32 | 33.93207 | -118.63132 | 8446 ft | 282 kts | 266° |
| 2026-05-05 22:32 | 33.92977 | -118.65472 | 9260 ft | 286 kts | 265° |
| 2026-05-05 22:32 | 33.92573 | -118.69539 | 10625 ft | 288 kts | 265° |
| 2026-05-05 22:33 | 33.92095 | -118.74381 | 12084 ft | 293 kts | 265° |
| 2026-05-05 22:33 | 33.91616 | -118.79234 | 13557 ft | 298 kts | 265° |
| 2026-05-05 22:33 | 33.91121 | -118.84240 | 14926 ft | 305 kts | 265° |
| 2026-05-05 22:33 | 33.90615 | -118.89342 | 16271 ft | 311 kts | 266° |
| 2026-05-05 22:34 | 33.90095 | -118.94568 | 17637 ft | 318 kts | 265° |
| 2026-05-05 22:34 | 33.89561 | -118.99901 | 18927 ft | 324 kts | 266° |
| 2026-05-05 22:34 | 33.89028 | -119.05224 | 20123 ft | 331 kts | 266° |
| 2026-05-05 22:34 | 33.88470 | -119.10764 | 21343 ft | 337 kts | 266° |
| 2026-05-05 22:35 | 33.87898 | -119.16416 | 22562 ft | 343 kts | 266° |
| 2026-05-05 22:35 | 33.87313 | -119.22170 | 23728 ft | 350 kts | 266° |
| 2026-05-05 22:35 | 33.86712 | -119.28046 | 24664 ft | 357 kts | 267° |
| 2026-05-05 22:35 | 33.86097 | -119.34040 | 25633 ft | 364 kts | 267° |
| 2026-05-05 22:36 | 33.85470 | -119.40119 | 26582 ft | 370 kts | 267° |
| 2026-05-05 22:36 | 33.84827 | -119.46314 | 27539 ft | 376 kts | 267° |
| 2026-05-05 22:36 | 33.84170 | -119.52617 | 28452 ft | 383 kts | 266° |
| 2026-05-05 22:36 | 33.83504 | -119.58973 | 29239 ft | 392 kts | 268° |
| 2026-05-05 22:37 | 33.82814 | -119.65537 | 30093 ft | 399 kts | 268° |
| 2026-05-05 22:37 | 33.82108 | -119.72203 | 30833 ft | 404 kts | 267° |
| 2026-05-05 22:37 | 33.81390 | -119.78935 | 31551 ft | 408 kts | 267° |
| 2026-05-05 22:37 | 33.80662 | -119.85731 | 32192 ft | 412 kts | 267° |
| 2026-05-05 22:38 | 33.79921 | -119.92620 | 32836 ft | 417 kts | 266° |
| 2026-05-05 22:38 | 33.79170 | -119.99563 | 33439 ft | 421 kts | 266° |
| 2026-05-05 22:38 | 33.78437 | -120.06307 | 33983 ft | 426 kts | 266° |
| 2026-05-05 22:38 | 33.77253 | -120.17093 | 34077 ft | 442 kts | 266° |
| 2026-05-05 22:39 | 33.73887 | -120.47461 | 34319 ft | 473 kts | 266° |
| 2026-05-05 22:39 | 33.70342 | -120.78556 | 34012 ft | 471 kts | 266° |
| 2026-05-05 22:39 | 33.66773 | -121.09359 | 34193 ft | 491 kts | 265° |
| 2026-05-05 22:39 | 33.62823 | -121.42508 | 34206 ft | 510 kts | 265° |
| 2026-05-05 22:40 | 33.58660 | -121.76609 | 34078 ft | 518 kts | 265° |
| 2026-05-05 22:40 | 33.50359 | -122.42533 | 33958 ft | 500 kts | 264° |
| 2026-05-05 22:40 | 33.45065 | -122.75595 | 34095 ft | 503 kts | 257° |
| 2026-05-05 22:41 | 33.33277 | -123.30701 | 34220 ft | 514 kts | 258° |
| 2026-05-05 22:41 | 33.05342 | -124.59253 | 34042 ft | 514 kts | 257° |
| 2026-05-05 22:41 | 32.91196 | -125.21726 | 33954 ft | 501 kts | 256° |
| 2026-05-05 22:42 | 32.76386 | -125.85483 | 34099 ft | 496 kts | 256° |
| 2026-05-05 22:42 | 32.61791 | -126.46790 | 34303 ft | 505 kts | 256° |
| 2026-05-05 22:42 | 32.46746 | -127.08514 | 34291 ft | 512 kts | 256° |
| 2026-05-05 22:42 | 32.30555 | -127.73384 | 34094 ft | 506 kts | 256° |
| 2026-05-05 22:43 | 32.15350 | -128.32893 | 34085 ft | 500 kts | 256° |
| 2026-05-05 22:43 | 31.83307 | -129.54430 | 34260 ft | 486 kts | 257° |
| 2026-05-05 22:43 | 31.67827 | -130.11279 | 34126 ft | 471 kts | 258° |
| 2026-05-05 22:44 | 31.54597 | -130.59033 | 34057 ft | 459 kts | 258° |
| 2026-05-05 22:44 | 31.52678 | -130.65959 | 34190 ft | 465 kts | 258° |
| 2026-05-05 22:45 | 31.50653 | -130.73237 | 34209 ft | 472 kts | 258° |
| 2026-05-05 22:45 | 31.48598 | -130.80554 | 34210 ft | 473 kts | 258° |
| 2026-05-05 22:46 | 31.46532 | -130.87876 | 34207 ft | 473 kts | 258° |
| 2026-05-05 22:46 | 31.44469 | -130.95169 | 34203 ft | 469 kts | 258° |
| 2026-05-05 22:47 | 31.42469 | -131.02233 | 34204 ft | 466 kts | 258° |
| 2026-05-05 22:47 | 31.40439 | -131.09387 | 34206 ft | 464 kts | 258° |
| 2026-05-05 22:48 | 31.38403 | -131.16552 | 34212 ft | 463 kts | 258° |
| 2026-05-05 22:48 | 31.36363 | -131.23710 | 34214 ft | 463 kts | 258° |
| 2026-05-05 22:49 | 31.34315 | -131.30881 | 34211 ft | 464 kts | 258° |
| 2026-05-05 22:49 | 31.28285 | -131.51886 | 34211 ft | 466 kts | 258° |
| 2026-05-05 22:50 | 31.19971 | -131.80612 | 34202 ft | 467 kts | 258° |
| 2026-05-05 22:50 | 31.11794 | -132.08609 | 34221 ft | 467 kts | 257° |
| 2026-05-05 22:51 | 31.03313 | -132.37346 | 34218 ft | 468 kts | 257° |
| 2026-05-05 22:51 | 30.94771 | -132.66037 | 34204 ft | 469 kts | 256° |
| 2026-05-05 22:52 | 30.86137 | -132.94773 | 34233 ft | 471 kts | 256° |
| 2026-05-05 22:52 | 30.77615 | -133.22877 | 34228 ft | 471 kts | 256° |
| 2026-05-05 22:53 | 30.68823 | -133.51614 | 34231 ft | 472 kts | 255° |
| 2026-05-05 22:53 | 30.60022 | -133.80125 | 34236 ft | 472 kts | 255° |
| 2026-05-05 22:54 | 30.51280 | -134.08199 | 34232 ft | 473 kts | 254° |
| 2026-05-05 22:54 | 30.42252 | -134.36935 | 34245 ft | 474 kts | 254° |
| 2026-05-05 22:55 | 30.33147 | -134.65662 | 34237 ft | 474 kts | 254° |
| 2026-05-05 22:55 | 30.24001 | -134.94269 | 34245 ft | 474 kts | 253° |
| 2026-05-05 22:56 | 30.14972 | -135.22270 | 34234 ft | 474 kts | 253° |
| 2026-05-05 22:56 | 30.05709 | -135.50755 | 34239 ft | 473 kts | 253° |
| 2026-05-05 22:57 | 29.96487 | -135.78876 | 34247 ft | 473 kts | 252° |
| 2026-05-05 22:57 | 29.87352 | -136.06502 | 34245 ft | 473 kts | 252° |
| 2026-05-05 22:58 | 29.78282 | -136.33712 | 34254 ft | 474 kts | 252° |
| 2026-05-05 22:58 | 29.73531 | -136.47882 | 34252 ft | 474 kts | 251° |
| 2026-05-05 22:59 | 29.68764 | -136.62038 | 34254 ft | 475 kts | 251° |
| 2026-05-05 22:59 | 29.63978 | -136.76193 | 34253 ft | 475 kts | 251° |
| 2026-05-05 23:00 | 29.56761 | -136.97429 | 34258 ft | 475 kts | 251° |
| 2026-05-05 23:00 | 29.52033 | -137.11272 | 34250 ft | 476 kts | 251° |
| 2026-05-05 23:01 | 29.47185 | -137.25407 | 34250 ft | 476 kts | 251° |
| 2026-05-05 23:01 | 29.42349 | -137.39454 | 34244 ft | 476 kts | 250° |
| 2026-05-05 23:02 | 29.37466 | -137.53577 | 34255 ft | 476 kts | 250° |
| 2026-05-05 23:02 | 29.32565 | -137.67697 | 34246 ft | 477 kts | 250° |
| 2026-05-05 23:03 | 29.27647 | -137.81812 | 34259 ft | 477 kts | 250° |
| 2026-05-05 23:03 | 29.22706 | -137.95933 | 34256 ft | 477 kts | 250° |
| 2026-05-05 23:04 | 29.17862 | -138.09727 | 34257 ft | 477 kts | 250° |
| 2026-05-05 23:04 | 29.12892 | -138.23820 | 34262 ft | 478 kts | 250° |
| 2026-05-05 23:05 | 29.07938 | -138.37816 | 34253 ft | 478 kts | 250° |
| 2026-05-05 23:05 | 29.02934 | -138.51897 | 34255 ft | 478 kts | 250° |
| 2026-05-05 23:06 | 28.97930 | -138.65923 | 34249 ft | 478 kts | 250° |
| 2026-05-05 23:06 | 28.92887 | -138.80005 | 34256 ft | 478 kts | 250° |
| 2026-05-05 23:07 | 28.87831 | -138.94068 | 34248 ft | 479 kts | 250° |
| 2026-05-05 23:07 | 28.82867 | -139.07823 | 34253 ft | 479 kts | 250° |
| 2026-05-05 23:08 | 28.77779 | -139.21870 | 34251 ft | 480 kts | 250° |
| 2026-05-05 23:08 | 28.72697 | -139.35849 | 34252 ft | 480 kts | 250° |
| 2026-05-05 23:09 | 28.67559 | -139.49905 | 34246 ft | 481 kts | 249° |
| 2026-05-05 23:09 | 28.62385 | -139.63959 | 34254 ft | 482 kts | 249° |
| 2026-05-05 23:10 | 28.57193 | -139.78028 | 34243 ft | 482 kts | 250° |
| 2026-05-05 23:10 | 28.51974 | -139.92115 | 34245 ft | 482 kts | 249° |
| 2026-05-05 23:11 | 28.46861 | -140.05866 | 34243 ft | 483 kts | 250° |
| 2026-05-05 23:11 | 28.41612 | -140.19929 | 34243 ft | 483 kts | 250° |
| 2026-05-05 23:12 | 28.36357 | -140.33954 | 34246 ft | 483 kts | 249° |
| 2026-05-05 23:12 | 28.31121 | -140.47879 | 34242 ft | 482 kts | 249° |
| 2026-05-05 23:13 | 28.25832 | -140.61892 | 34244 ft | 482 kts | 249° |
| 2026-05-05 23:13 | 28.20542 | -140.75859 | 34238 ft | 482 kts | 249° |
| 2026-05-05 23:14 | 28.15235 | -140.89817 | 34244 ft | 482 kts | 249° |
| 2026-05-05 23:14 | 28.10033 | -141.03450 | 34241 ft | 482 kts | 249° |
| 2026-05-05 23:15 | 28.06172 | -141.13536 | 34234 ft | 481 kts | 249° |
| 2026-05-05 23:15 | 28.01128 | -141.26675 | 34237 ft | 482 kts | 249° |
| 2026-05-05 23:16 | 27.95787 | -141.40538 | 34228 ft | 482 kts | 249° |
| 2026-05-05 23:16 | 27.90411 | -141.54441 | 34233 ft | 482 kts | 248° |
| 2026-05-05 23:17 | 27.85020 | -141.68334 | 34230 ft | 482 kts | 248° |
| 2026-05-05 23:17 | 27.79646 | -141.82134 | 34235 ft | 482 kts | 248° |
| 2026-05-05 23:18 | 27.74245 | -141.95954 | 34227 ft | 481 kts | 248° |
| 2026-05-05 23:18 | 27.68949 | -142.09459 | 34230 ft | 480 kts | 248° |
| 2026-05-05 23:19 | 27.63528 | -142.23232 | 34221 ft | 479 kts | 248° |
| 2026-05-05 23:19 | 27.58106 | -142.36962 | 34217 ft | 479 kts | 247° |
| 2026-05-05 23:20 | 27.52678 | -142.50660 | 34221 ft | 479 kts | 247° |
| 2026-05-05 23:20 | 27.47231 | -142.64358 | 34219 ft | 478 kts | 247° |
| 2026-05-05 23:21 | 27.41810 | -142.77943 | 34218 ft | 479 kts | 247° |
| 2026-05-05 23:21 | 27.36343 | -142.91597 | 34217 ft | 479 kts | 247° |
| 2026-05-05 23:22 | 27.30960 | -143.04996 | 34209 ft | 479 kts | 247° |
| 2026-05-05 23:22 | 27.25464 | -143.18631 | 34218 ft | 479 kts | 247° |
| 2026-05-05 23:23 | 27.19950 | -143.32262 | 34216 ft | 479 kts | 247° |
| 2026-05-05 23:23 | 27.14422 | -143.45883 | 34207 ft | 479 kts | 247° |
| 2026-05-05 23:24 | 27.08885 | -143.59481 | 34203 ft | 479 kts | 247° |
| 2026-05-05 23:24 | 27.04240 | -143.70852 | 34197 ft | 478 kts | 247° |
| 2026-05-05 23:25 | 26.94074 | -143.95631 | 34205 ft | 478 kts | 246° |
| 2026-05-05 23:25 | 26.83165 | -144.22052 | 34196 ft | 478 kts | 246° |
| 2026-05-05 23:26 | 26.71957 | -144.49025 | 34190 ft | 477 kts | 246° |
| 2026-05-05 23:26 | 26.60730 | -144.75868 | 34192 ft | 476 kts | 246° |
| 2026-05-05 23:27 | 26.49734 | -145.01993 | 34186 ft | 472 kts | 246° |
| 2026-05-05 23:27 | 26.38595 | -145.28290 | 34187 ft | 471 kts | 246° |
| 2026-05-05 23:28 | 26.27375 | -145.54616 | 34194 ft | 469 kts | 246° |
| 2026-05-05 23:28 | 26.16139 | -145.80820 | 34183 ft | 468 kts | 246° |
| 2026-05-05 23:29 | 26.05125 | -146.06350 | 34169 ft | 466 kts | 246° |
| 2026-05-05 23:29 | 25.93895 | -146.32242 | 34180 ft | 465 kts | 246° |
| 2026-05-05 23:30 | 25.82641 | -146.58067 | 34169 ft | 464 kts | 246° |
| 2026-05-05 23:30 | 25.71363 | -146.83790 | 34167 ft | 463 kts | 246° |
| 2026-05-05 23:31 | 25.60295 | -147.08888 | 34154 ft | 462 kts | 246° |
| 2026-05-05 23:31 | 25.48952 | -147.34461 | 34138 ft | 462 kts | 246° |
| 2026-05-05 23:32 | 25.37606 | -147.59896 | 34143 ft | 461 kts | 245° |
| 2026-05-05 23:32 | 25.26299 | -147.85098 | 34141 ft | 460 kts | 245° |
| 2026-05-05 23:33 | 25.15135 | -148.09842 | 34123 ft | 459 kts | 245° |
| 2026-05-05 23:33 | 25.03725 | -148.34991 | 34127 ft | 458 kts | 245° |
| 2026-05-05 23:34 | 24.92287 | -148.60064 | 34129 ft | 457 kts | 245° |
| 2026-05-05 23:34 | 24.80839 | -148.85019 | 34122 ft | 456 kts | 245° |
| 2026-05-05 23:35 | 24.69583 | -149.09424 | 34130 ft | 456 kts | 245° |
| 2026-05-05 23:35 | 24.29655 | -149.94983 | 34124 ft | 455 kts | 245° |
| 2026-05-05 23:36 | 23.84150 | -150.90630 | 34099 ft | 456 kts | 244° |
| 2026-05-05 23:36 | 23.38415 | -151.84848 | 34082 ft | 460 kts | 244° |
| 2026-05-05 23:37 | 22.90664 | -152.81196 | 34088 ft | 463 kts | 243° |
| 2026-05-05 23:37 | 22.42083 | -153.76834 | 34072 ft | 464 kts | 243° |
| 2026-05-05 23:38 | 22.37183 | -154.26394 | 34314 ft | 442 kts | 278° |
| 2026-05-05 23:38 | 22.37887 | -154.80969 | 34389 ft | 468 kts | 271° |
| 2026-05-05 23:38 | 22.38882 | -155.34464 | 34098 ft | 471 kts | 270° |
| 2026-05-05 23:38 | 22.39547 | -155.90769 | 33922 ft | 462 kts | 270° |
| 2026-05-05 23:39 | 22.38713 | -156.30500 | 33324 ft | 454 kts | 247° |
| 2026-05-05 23:39 | 22.36972 | -156.33305 | 33512 ft | 452 kts | 228° |
| 2026-05-05 23:39 | 22.34663 | -156.35482 | 33559 ft | 440 kts | 223° |
| 2026-05-05 23:39 | 22.32301 | -156.37504 | 33515 ft | 428 kts | 220° |
| 2026-05-05 23:40 | 22.29887 | -156.39371 | 33296 ft | 429 kts | 220° |
| 2026-05-05 23:40 | 22.27536 | -156.41369 | 32773 ft | 427 kts | 224° |
| 2026-05-05 23:40 | 22.25365 | -156.43516 | 32283 ft | 421 kts | 228° |
| 2026-05-05 23:40 | 22.23345 | -156.45790 | 31832 ft | 416 kts | 231° |
| 2026-05-05 23:41 | 22.21440 | -156.48122 | 31370 ft | 412 kts | 232° |
| 2026-05-05 23:41 | 22.19600 | -156.50482 | 30910 ft | 409 kts | 233° |
| 2026-05-05 23:41 | 22.17793 | -156.52842 | 30458 ft | 406 kts | 233° |
| 2026-05-05 23:41 | 22.16006 | -156.55188 | 29973 ft | 404 kts | 233° |
| 2026-05-05 23:42 | 22.14226 | -156.57519 | 29444 ft | 402 kts | 233° |
| 2026-05-05 23:42 | 22.12451 | -156.59836 | 28957 ft | 399 kts | 233° |
| 2026-05-05 23:42 | 22.10707 | -156.62104 | 28489 ft | 396 kts | 233° |
| 2026-05-05 23:42 | 22.08953 | -156.64381 | 28032 ft | 393 kts | 233° |
| 2026-05-05 23:43 | 22.07213 | -156.66638 | 27583 ft | 390 kts | 233° |
| 2026-05-05 23:43 | 22.05476 | -156.68886 | 27134 ft | 388 kts | 233° |
| 2026-05-05 23:43 | 22.03756 | -156.71114 | 26692 ft | 386 kts | 233° |
| 2026-05-05 23:43 | 22.02039 | -156.73335 | 26242 ft | 384 kts | 233° |
| 2026-05-05 23:44 | 22.00336 | -156.75539 | 25784 ft | 382 kts | 233° |
| 2026-05-05 23:44 | 21.98640 | -156.77732 | 25352 ft | 380 kts | 233° |
| 2026-05-05 23:44 | 21.96951 | -156.79915 | 24910 ft | 379 kts | 232° |
| 2026-05-05 23:44 | 21.95260 | -156.82100 | 24454 ft | 379 kts | 232° |
| 2026-05-05 23:45 | 21.93572 | -156.84279 | 24028 ft | 378 kts | 232° |
| 2026-05-05 23:45 | 21.91908 | -156.86429 | 23570 ft | 378 kts | 232° |
| 2026-05-05 23:45 | 21.90230 | -156.88594 | 23063 ft | 377 kts | 232° |
| 2026-05-05 23:45 | 21.88552 | -156.90758 | 22611 ft | 375 kts | 232° |
| 2026-05-05 23:46 | 21.86885 | -156.92909 | 22156 ft | 373 kts | 232° |
| 2026-05-05 23:46 | 21.85226 | -156.95047 | 21719 ft | 371 kts | 232° |
| 2026-05-05 23:46 | 21.83574 | -156.97174 | 21289 ft | 369 kts | 232° |
| 2026-05-05 23:46 | 21.81930 | -156.99292 | 20858 ft | 368 kts | 232° |
| 2026-05-05 23:47 | 21.80357 | -157.01319 | 20444 ft | 366 kts | 232° |
| 2026-05-05 23:47 | 21.78723 | -157.03425 | 20016 ft | 365 kts | 232° |
| 2026-05-05 23:47 | 21.77091 | -157.05528 | 19587 ft | 365 kts | 232° |
| 2026-05-05 23:47 | 21.75466 | -157.07622 | 19137 ft | 364 kts | 232° |
| 2026-05-05 23:48 | 21.73858 | -157.09693 | 18713 ft | 364 kts | 232° |
| 2026-05-05 23:48 | 21.72231 | -157.11787 | 18256 ft | 365 kts | 232° |
| 2026-05-05 23:48 | 21.70603 | -157.13882 | 17769 ft | 364 kts | 231° |
| 2026-05-05 23:48 | 21.68978 | -157.15972 | 17314 ft | 363 kts | 231° |
| 2026-05-05 23:49 | 21.67357 | -157.18056 | 16881 ft | 362 kts | 231° |
| 2026-05-05 23:49 | 21.65745 | -157.20128 | 16423 ft | 361 kts | 231° |
| 2026-05-05 23:49 | 21.64130 | -157.22202 | 15965 ft | 361 kts | 231° |
| 2026-05-05 23:49 | 21.62519 | -157.24271 | 15507 ft | 361 kts | 231° |
| 2026-05-05 23:50 | 21.60907 | -157.26341 | 15068 ft | 360 kts | 231° |
| 2026-05-05 23:50 | 21.59319 | -157.28379 | 14643 ft | 360 kts | 231° |
| 2026-05-05 23:50 | 21.57708 | -157.30445 | 14192 ft | 360 kts | 231° |
| 2026-05-05 23:50 | 21.56099 | -157.32509 | 13732 ft | 361 kts | 230° |
| 2026-05-05 23:51 | 21.54488 | -157.34573 | 13261 ft | 360 kts | 231° |
| 2026-05-05 23:51 | 21.52884 | -157.36629 | 12808 ft | 358 kts | 230° |
| 2026-05-05 23:51 | 21.51285 | -157.38677 | 12371 ft | 357 kts | 230° |
| 2026-05-05 23:51 | 21.49694 | -157.40715 | 11948 ft | 355 kts | 230° |
| 2026-05-05 23:52 | 21.48108 | -157.42745 | 11513 ft | 354 kts | 230° |
| 2026-05-05 23:52 | 21.46525 | -157.44771 | 11086 ft | 353 kts | 230° |
| 2026-05-05 23:52 | 21.44949 | -157.46788 | 10653 ft | 352 kts | 230° |
| 2026-05-05 23:52 | 21.43382 | -157.48791 | 10443 ft | 345 kts | 230° |
| 2026-05-05 23:53 | 21.41859 | -157.50737 | 10282 ft | 336 kts | 230° |
| 2026-05-05 23:53 | 21.40373 | -157.52634 | 10129 ft | 328 kts | 230° |
| 2026-05-05 23:53 | 21.38920 | -157.54489 | 9927 ft | 321 kts | 230° |
| 2026-05-05 23:53 | 21.37495 | -157.56308 | 9695 ft | 315 kts | 230° |
| 2026-05-05 23:54 | 21.36103 | -157.58083 | 9475 ft | 303 kts | 230° |
| 2026-05-05 23:54 | 21.34790 | -157.59757 | 9196 ft | 285 kts | 230° |
| 2026-05-05 23:54 | 21.33526 | -157.61367 | 8907 ft | 278 kts | 230° |
| 2026-05-05 23:54 | 21.32306 | -157.62922 | 8604 ft | 268 kts | 230° |
| 2026-05-05 23:55 | 21.31113 | -157.64440 | 8038 ft | 266 kts | 230° |
| 2026-05-05 23:55 | 21.29951 | -157.65919 | 7487 ft | 266 kts | 231° |
| 2026-05-05 23:55 | 21.28774 | -157.67416 | 7076 ft | 261 kts | 230° |
| 2026-05-05 23:55 | 21.27605 | -157.68902 | 6619 ft | 260 kts | 231° |
| 2026-05-05 23:56 | 21.26636 | -157.70468 | 6422 ft | 240 kts | 250° |
| 2026-05-05 23:56 | 21.26297 | -157.72251 | 6239 ft | 259 kts | 265° |
| 2026-05-05 23:56 | 21.26135 | -157.74226 | 5883 ft | 270 kts | 265° |
| 2026-05-05 23:56 | 21.25975 | -157.76234 | 5551 ft | 270 kts | 265° |
| 2026-05-05 23:57 | 21.25813 | -157.78231 | 5262 ft | 267 kts | 265° |
| 2026-05-05 23:57 | 21.25650 | -157.80209 | 4919 ft | 266 kts | 265° |
| 2026-05-05 23:57 | 21.25485 | -157.82183 | 4587 ft | 265 kts | 265° |
| 2026-05-05 23:57 | 21.25321 | -157.84127 | 4189 ft | 257 kts | 265° |
| 2026-05-05 23:58 | 21.25162 | -157.85993 | 3917 ft | 245 kts | 265° |
| 2026-05-05 23:58 | 21.25008 | -157.87792 | 3613 ft | 239 kts | 265° |
| 2026-05-05 23:58 | 21.24861 | -157.89503 | 3477 ft | 222 kts | 265° |
| 2026-05-05 23:58 | 21.24725 | -157.91080 | 3363 ft | 201 kts | 265° |
| 2026-05-05 23:59 | 21.24602 | -157.92493 | 3083 ft | 180 kts | 265° |
| 2026-05-05 23:59 | 21.24494 | -157.93741 | 2911 ft | 168 kts | 264° |
| 2026-05-05 23:59 | 21.24383 | -157.95017 | 2712 ft | 172 kts | 265° |
| 2026-05-05 23:59 | 21.24441 | -157.96271 | 2463 ft | 170 kts | 288° |
| 2026-05-06 00:00 | 21.25097 | -157.97330 | 2256 ft | 175 kts | 313° |
| 2026-05-06 00:00 | 21.26159 | -157.97930 | 2068 ft | 177 kts | 352° |
| 2026-05-06 00:00 | 21.27312 | -157.97495 | 2028 ft | 181 kts | 37° |
| 2026-05-06 00:00 | 21.28245 | -157.96567 | 1602 ft | 184 kts | 44° |
| 2026-05-06 00:01 | 21.29119 | -157.95564 | 1029 ft | 182 kts | 48° |
| 2026-05-06 00:01 | 21.29924 | -157.94551 | 661 ft | 171 kts | 50° |
| 2026-05-06 00:01 | 21.30743 | -157.93596 | 355 ft | 177 kts | 49° |
| 2026-05-06 00:01 | 21.31495 | -157.92575 | 65 ft | 174 kts | 54° |
| 2026-05-06 00:02 | 21.32177 | -157.91608 | 29 ft | 146 kts | 53° |
| 2026-05-06 00:02 | 21.32674 | -157.90900 | 29 ft | 64 kts | 53° |
| 2026-05-06 00:02 | 21.32808 | -157.90710 | 29 ft | 28 kts | 53° |
| 2026-05-06 00:02 | 21.32885 | -157.90648 | 29 ft | 12 kts | 356° |
| 2026-05-06 00:03 | 21.32983 | -157.90717 | 29 ft | 18 kts | 322° |
| 2026-05-06 00:03 | 21.33036 | -157.90783 | 28 ft | 18 kts | 291° |
| 2026-05-06 00:03 | 21.33015 | -157.90908 | 29 ft | 18 kts | 236° |
| 2026-05-06 00:03 | 21.32916 | -157.91049 | 29 ft | 18 kts | 233° |
| 2026-05-06 00:04 | 21.32840 | -157.91156 | 29 ft | 18 kts | 233° |
| 2026-05-06 00:04 | 21.32791 | -157.91226 | 29 ft | 18 kts | 237° |
| 2026-05-06 00:04 | 21.32775 | -157.91356 | 29 ft | 18 kts | 270° |
| 2026-05-06 00:04 | 21.32775 | -157.91463 | 29 ft | 6 kts | 270° |
| 2026-05-06 00:05 | 21.32832 | -157.91504 | 29 ft | 6 kts | 357° |
| 2026-05-06 00:05 | 21.32863 | -157.91505 | 29 ft | 3 kts | 360° |
| 2026-05-06 00:05 | 21.32871 | -157.91505 | 29 ft | 0 kts | 360° |